sensor_id;sensor_type;location;lat;lon;timestamp;P1;durP1;ratioP1;P2;durP2;ratioP2
75912;SDS011;64592;52.168;21.040;2024-03-23T00:53:57;22.80;;;11.95;;
75912;SDS011;64592;52.168;21.040;2024-03-23T00:58:59;19.85;;;10.73;;
75912;SDS011;64592;52.168;21.040;2024-03-23T01:04:00;23.23;;;12.63;;
75912;SDS011;64592;52.168;21.040;2024-03-23T01:09:05;22.17;;;12.10;;
75912;SDS011;64592;52.168;21.040;2024-03-23T01:14:09;22.70;;;13.07;;
75912;SDS011;64592;52.168;21.040;2024-03-23T01:19:11;25.88;;;11.77;;
75912;SDS011;64592;52.168;21.040;2024-03-23T01:24:14;24.55;;;11.93;;
75912;SDS011;64592;52.168;21.040;2024-03-23T01:29:16;25.85;;;12.98;;
75912;SDS011;64592;52.168;21.040;2024-03-23T01:34:17;25.92;;;12.98;;
75912;SDS011;64592;52.168;21.040;2024-03-23T01:39:22;26.02;;;13.98;;
75912;SDS011;64592;52.168;21.040;2024-03-23T01:44:23;23.80;;;11.85;;
75912;SDS011;64592;52.168;21.040;2024-03-23T01:49:25;24.63;;;13.40;;
75912;SDS011;64592;52.168;21.040;2024-03-23T01:54:28;27.52;;;14.45;;
75912;SDS011;64592;52.168;21.040;2024-03-23T01:59:31;23.85;;;12.80;;
75912;SDS011;64592;52.168;21.040;2024-03-23T02:04:33;27.35;;;13.75;;
75912;SDS011;64592;52.168;21.040;2024-03-23T02:09:36;27.15;;;13.02;;
75912;SDS011;64592;52.168;21.040;2024-03-23T02:14:38;29.73;;;13.02;;
75912;SDS011;64592;52.168;21.040;2024-03-23T02:19:39;30.02;;;13.40;;
75912;SDS011;64592;52.168;21.040;2024-03-23T02:24:42;31.25;;;14.18;;
75912;SDS011;64592;52.168;21.040;2024-03-23T02:29:44;30.23;;;14.68;;
75912;SDS011;64592;52.168;21.040;2024-03-23T02:34:46;26.38;;;13.68;;
75912;SDS011;64592;52.168;21.040;2024-03-23T02:39:49;28.73;;;13.60;;
75912;SDS011;64592;52.168;21.040;2024-03-23T02:44:50;24.00;;;12.90;;
75912;SDS011;64592;52.168;21.040;2024-03-23T02:49:52;31.88;;;14.80;;
75912;SDS011;64592;52.168;21.040;2024-03-23T02:54:55;30.05;;;15.88;;
75912;SDS011;64592;52.168;21.040;2024-03-23T02:59:57;27.27;;;14.35;;
75912;SDS011;64592;52.168;21.040;2024-03-23T03:04:59;28.85;;;15.88;;
75912;SDS011;64592;52.168;21.040;2024-03-23T03:10:02;33.35;;;16.02;;
75912;SDS011;64592;52.168;21.040;2024-03-23T03:15:05;32.95;;;15.15;;
75912;SDS011;64592;52.168;21.040;2024-03-23T03:20:08;33.10;;;14.43;;
75912;SDS011;64592;52.168;21.040;2024-03-23T03:25:14;32.30;;;15.52;;
75912;SDS011;64592;52.168;21.040;2024-03-23T03:30:16;28.30;;;15.45;;
75912;SDS011;64592;52.168;21.040;2024-03-23T03:35:18;28.95;;;15.20;;
75912;SDS011;64592;52.168;21.040;2024-03-23T03:40:21;30.58;;;15.52;;
75912;SDS011;64592;52.168;21.040;2024-03-23T03:45:23;28.05;;;15.07;;
75912;SDS011;64592;52.168;21.040;2024-03-23T03:50:24;29.23;;;15.45;;
75912;SDS011;64592;52.168;21.040;2024-03-23T03:55:28;33.10;;;16.63;;
75912;SDS011;64592;52.168;21.040;2024-03-23T04:00:29;28.90;;;15.07;;
75912;SDS011;64592;52.168;21.040;2024-03-23T04:05:31;30.80;;;16.77;;
75912;SDS011;64592;52.168;21.040;2024-03-23T04:10:34;27.25;;;14.57;;
75912;SDS011;64592;52.168;21.040;2024-03-23T04:15:36;32.63;;;17.05;;
75912;SDS011;64592;52.168;21.040;2024-03-23T04:20:37;30.60;;;15.38;;
75912;SDS011;64592;52.168;21.040;2024-03-23T04:25:40;35.15;;;15.52;;
75912;SDS011;64592;52.168;21.040;2024-03-23T04:30:42;32.22;;;13.40;;
75912;SDS011;64592;52.168;21.040;2024-03-23T04:35:43;28.27;;;15.85;;
75912;SDS011;64592;52.168;21.040;2024-03-23T04:40:47;30.42;;;15.13;;
75912;SDS011;64592;52.168;21.040;2024-03-23T04:45:55;36.10;;;17.17;;
75912;SDS011;64592;52.168;21.040;2024-03-23T04:50:57;34.80;;;16.35;;
75912;SDS011;64592;52.168;21.040;2024-03-23T04:56:00;35.03;;;16.90;;
75912;SDS011;64592;52.168;21.040;2024-03-23T05:01:04;36.30;;;17.35;;
75912;SDS011;64592;52.168;21.040;2024-03-23T05:06:06;34.92;;;17.35;;
75912;SDS011;64592;52.168;21.040;2024-03-23T05:11:09;34.88;;;18.42;;
75912;SDS011;64592;52.168;21.040;2024-03-23T05:16:11;37.28;;;16.35;;
75912;SDS011;64592;52.168;21.040;2024-03-23T05:21:13;34.15;;;16.13;;
75912;SDS011;64592;52.168;21.040;2024-03-23T05:26:16;28.55;;;14.68;;
75912;SDS011;64592;52.168;21.040;2024-03-23T05:31:24;33.28;;;18.05;;
75912;SDS011;64592;52.168;21.040;2024-03-23T05:36:25;36.45;;;17.92;;
75912;SDS011;64592;52.168;21.040;2024-03-23T05:41:29;35.85;;;16.35;;
75912;SDS011;64592;52.168;21.040;2024-03-23T05:46:30;33.15;;;18.05;;
75912;SDS011;64592;52.168;21.040;2024-03-23T05:51:32;37.90;;;17.58;;
75912;SDS011;64592;52.168;21.040;2024-03-23T05:56:35;29.42;;;16.63;;
75912;SDS011;64592;52.168;21.040;2024-03-23T06:01:37;33.58;;;18.33;;
75912;SDS011;64592;52.168;21.040;2024-03-23T06:06:39;32.45;;;18.08;;
75912;SDS011;64592;52.168;21.040;2024-03-23T06:11:42;35.40;;;17.02;;
75912;SDS011;64592;52.168;21.040;2024-03-23T06:16:44;36.72;;;17.70;;
75912;SDS011;64592;52.168;21.040;2024-03-23T06:21:46;37.28;;;16.27;;
75912;SDS011;64592;52.168;21.040;2024-03-23T06:26:49;33.20;;;17.70;;
75912;SDS011;64592;52.168;21.040;2024-03-23T06:31:53;33.72;;;17.48;;
75912;SDS011;64592;52.168;21.040;2024-03-23T06:36:55;34.10;;;17.33;;
75912;SDS011;64592;52.168;21.040;2024-03-23T06:41:58;31.90;;;17.15;;
75912;SDS011;64592;52.168;21.040;2024-03-23T06:47:00;29.30;;;15.65;;
75912;SDS011;64592;52.168;21.040;2024-03-23T06:52:03;34.00;;;18.10;;
75912;SDS011;64592;52.168;21.040;2024-03-23T06:57:06;30.85;;;16.48;;
75912;SDS011;64592;52.168;21.040;2024-03-23T07:02:07;34.83;;;17.10;;
75912;SDS011;64592;52.168;21.040;2024-03-23T07:07:09;36.55;;;16.88;;
75912;SDS011;64592;52.168;21.040;2024-03-23T07:12:13;31.15;;;16.58;;
75912;SDS011;64592;52.168;21.040;2024-03-23T07:17:14;33.25;;;15.90;;
75912;SDS011;64592;52.168;21.040;2024-03-23T07:22:18;31.98;;;15.63;;
75912;SDS011;64592;52.168;21.040;2024-03-23T07:27:21;28.95;;;14.27;;
75912;SDS011;64592;52.168;21.040;2024-03-23T07:32:23;31.08;;;15.43;;
75912;SDS011;64592;52.168;21.040;2024-03-23T07:37:26;29.95;;;16.33;;
75912;SDS011;64592;52.168;21.040;2024-03-23T07:42:29;37.28;;;17.42;;
75912;SDS011;64592;52.168;21.040;2024-03-23T07:47:31;39.10;;;16.20;;
75912;SDS011;64592;52.168;21.040;2024-03-23T07:52:33;35.22;;;16.05;;
75912;SDS011;64592;52.168;21.040;2024-03-23T07:57:36;37.60;;;18.23;;
75912;SDS011;64592;52.168;21.040;2024-03-23T08:02:37;35.20;;;16.27;;
75912;SDS011;64592;52.168;21.040;2024-03-23T08:07:39;31.23;;;16.55;;
75912;SDS011;64592;52.168;21.040;2024-03-23T08:12:42;37.90;;;16.52;;
75912;SDS011;64592;52.168;21.040;2024-03-23T08:17:47;31.65;;;17.20;;
75912;SDS011;64592;52.168;21.040;2024-03-23T08:22:48;34.05;;;15.38;;
75912;SDS011;64592;52.168;21.040;2024-03-23T08:27:51;35.97;;;16.55;;
75912;SDS011;64592;52.168;21.040;2024-03-23T08:32:53;31.30;;;15.82;;
75912;SDS011;64592;52.168;21.040;2024-03-23T08:37:55;32.17;;;14.65;;
75912;SDS011;64592;52.168;21.040;2024-03-23T08:42:58;27.85;;;16.20;;
75912;SDS011;64592;52.168;21.040;2024-03-23T08:47:59;35.50;;;17.48;;
75912;SDS011;64592;52.168;21.040;2024-03-23T08:53:01;30.65;;;15.20;;
75912;SDS011;64592;52.168;21.040;2024-03-23T08:58:04;27.67;;;13.73;;
75912;SDS011;64592;52.168;21.040;2024-03-23T09:03:08;25.52;;;12.95;;
75912;SDS011;64592;52.168;21.040;2024-03-23T09:08:10;23.95;;;11.43;;
75912;SDS011;64592;52.168;21.040;2024-03-23T09:13:13;24.55;;;11.63;;
75912;SDS011;64592;52.168;21.040;2024-03-23T09:18:16;20.35;;;10.85;;
75912;SDS011;64592;52.168;21.040;2024-03-23T09:23:18;22.60;;;11.43;;
75912;SDS011;64592;52.168;21.040;2024-03-23T09:28:21;20.67;;;10.90;;
75912;SDS011;64592;52.168;21.040;2024-03-23T09:33:23;20.05;;;10.98;;
75912;SDS011;64592;52.168;21.040;2024-03-23T09:38:25;17.95;;;10.15;;
75912;SDS011;64592;52.168;21.040;2024-03-23T09:43:28;15.25;;;8.57;;
75912;SDS011;64592;52.168;21.040;2024-03-23T09:48:29;17.58;;;9.43;;
75912;SDS011;64592;52.168;21.040;2024-03-23T09:53:32;16.27;;;10.15;;
75912;SDS011;64592;52.168;21.040;2024-03-23T09:58:35;16.17;;;9.27;;
75912;SDS011;64592;52.168;21.040;2024-03-23T10:03:42;18.50;;;9.85;;
75912;SDS011;64592;52.168;21.040;2024-03-23T10:08:45;18.05;;;9.32;;
75912;SDS011;64592;52.168;21.040;2024-03-23T10:13:48;15.75;;;9.80;;
75912;SDS011;64592;52.168;21.040;2024-03-23T10:18:50;20.35;;;10.15;;
75912;SDS011;64592;52.168;21.040;2024-03-23T10:23:52;14.80;;;8.77;;
75912;SDS011;64592;52.168;21.040;2024-03-23T10:28:55;16.70;;;8.93;;
75912;SDS011;64592;52.168;21.040;2024-03-23T10:34:00;14.55;;;8.68;;
75912;SDS011;64592;52.168;21.040;2024-03-23T10:39:02;15.07;;;7.82;;
75912;SDS011;64592;52.168;21.040;2024-03-23T10:44:07;13.07;;;7.85;;
75912;SDS011;64592;52.168;21.040;2024-03-23T10:49:09;13.65;;;7.93;;
75912;SDS011;64592;52.168;21.040;2024-03-23T10:54:11;15.40;;;8.07;;
75912;SDS011;64592;52.168;21.040;2024-03-23T10:59:14;14.93;;;7.47;;
75912;SDS011;64592;52.168;21.040;2024-03-23T11:04:29;13.68;;;6.47;;
75912;SDS011;64592;52.168;21.040;2024-03-23T11:09:41;12.15;;;7.05;;
75912;SDS011;64592;52.168;21.040;2024-03-23T11:14:46;14.95;;;7.72;;
75912;SDS011;64592;52.168;21.040;2024-03-23T11:19:52;9.20;;;5.88;;
75912;SDS011;64592;52.168;21.040;2024-03-23T11:24:56;9.75;;;6.30;;
75912;SDS011;64592;52.168;21.040;2024-03-23T11:30:10;12.75;;;6.05;;
75912;SDS011;64592;52.168;21.040;2024-03-23T11:35:25;12.98;;;6.95;;
75912;SDS011;64592;52.168;21.040;2024-03-23T11:40:27;10.13;;;5.88;;
75912;SDS011;64592;52.168;21.040;2024-03-23T11:45:33;11.57;;;5.88;;
75912;SDS011;64592;52.168;21.040;2024-03-23T11:50:37;11.65;;;6.65;;
75912;SDS011;64592;52.168;21.040;2024-03-23T11:55:42;10.65;;;6.45;;
75912;SDS011;64592;52.168;21.040;2024-03-23T12:00:55;9.05;;;5.97;;
75912;SDS011;64592;52.168;21.040;2024-03-23T12:11:06;12.77;;;6.45;;
75912;SDS011;64592;52.168;21.040;2024-03-23T12:16:11;8.77;;;4.95;;
75912;SDS011;64592;52.168;21.040;2024-03-23T12:21:13;10.10;;;6.30;;
75912;SDS011;64592;52.168;21.040;2024-03-23T12:26:15;10.43;;;5.95;;
75912;SDS011;64592;52.168;21.040;2024-03-23T12:31:19;8.73;;;5.53;;
75912;SDS011;64592;52.168;21.040;2024-03-23T12:36:21;10.32;;;7.63;;
75912;SDS011;64592;52.168;21.040;2024-03-23T12:41:23;10.60;;;7.18;;
75912;SDS011;64592;52.168;21.040;2024-03-23T12:46:26;9.40;;;5.90;;
75912;SDS011;64592;52.168;21.040;2024-03-23T12:51:28;10.90;;;6.38;;
75912;SDS011;64592;52.168;21.040;2024-03-23T12:56:29;10.43;;;6.45;;
75912;SDS011;64592;52.168;21.040;2024-03-23T13:01:33;8.55;;;5.82;;
75912;SDS011;64592;52.168;21.040;2024-03-23T13:06:34;10.00;;;6.13;;
75912;SDS011;64592;52.168;21.040;2024-03-23T13:11:36;9.77;;;6.35;;
75912;SDS011;64592;52.168;21.040;2024-03-23T13:16:39;9.45;;;5.70;;
75912;SDS011;64592;52.168;21.040;2024-03-23T13:21:41;12.13;;;6.38;;
75912;SDS011;64592;52.168;21.040;2024-03-23T13:26:42;10.25;;;6.47;;
75912;SDS011;64592;52.168;21.040;2024-03-23T13:31:45;9.32;;;6.35;;
75912;SDS011;64592;52.168;21.040;2024-03-23T13:36:47;9.07;;;5.82;;
75912;SDS011;64592;52.168;21.040;2024-03-23T13:41:49;8.75;;;5.47;;
75912;SDS011;64592;52.168;21.040;2024-03-23T13:46:52;10.20;;;5.93;;
75912;SDS011;64592;52.168;21.040;2024-03-23T13:51:54;8.60;;;6.30;;
75912;SDS011;64592;52.168;21.040;2024-03-23T13:56:58;8.77;;;5.47;;
75912;SDS011;64592;52.168;21.040;2024-03-23T14:02:01;13.10;;;5.65;;
75912;SDS011;64592;52.168;21.040;2024-03-23T14:07:03;7.57;;;5.50;;
75912;SDS011;64592;52.168;21.040;2024-03-23T14:12:04;7.47;;;5.53;;
75912;SDS011;64592;52.168;21.040;2024-03-23T14:17:10;8.60;;;5.43;;
75912;SDS011;64592;52.168;21.040;2024-03-23T14:22:14;9.20;;;6.38;;
75912;SDS011;64592;52.168;21.040;2024-03-23T14:27:18;10.38;;;5.85;;
75912;SDS011;64592;52.168;21.040;2024-03-23T14:32:21;11.43;;;5.70;;
75912;SDS011;64592;52.168;21.040;2024-03-23T14:37:23;9.32;;;6.53;;
75912;SDS011;64592;52.168;21.040;2024-03-23T14:42:24;10.10;;;5.82;;
75912;SDS011;64592;52.168;21.040;2024-03-23T14:47:27;10.95;;;5.63;;
75912;SDS011;64592;52.168;21.040;2024-03-23T14:52:29;8.82;;;5.65;;
75912;SDS011;64592;52.168;21.040;2024-03-23T14:57:30;9.98;;;6.25;;
75912;SDS011;64592;52.168;21.040;2024-03-23T15:02:34;9.82;;;6.35;;
75912;SDS011;64592;52.168;21.040;2024-03-23T15:07:37;10.73;;;6.80;;
75912;SDS011;64592;52.168;21.040;2024-03-23T15:12:39;11.88;;;8.15;;
75912;SDS011;64592;52.168;21.040;2024-03-23T15:17:42;9.85;;;7.35;;
75912;SDS011;64592;52.168;21.040;2024-03-23T15:22:45;12.90;;;7.10;;
75912;SDS011;64592;52.168;21.040;2024-03-23T15:27:47;12.48;;;8.68;;
75912;SDS011;64592;52.168;21.040;2024-03-23T15:32:50;14.45;;;8.25;;
75912;SDS011;64592;52.168;21.040;2024-03-23T15:37:52;14.45;;;9.50;;
75912;SDS011;64592;52.168;21.040;2024-03-23T15:42:54;16.38;;;11.45;;
75912;SDS011;64592;52.168;21.040;2024-03-23T15:47:57;19.17;;;11.20;;
75912;SDS011;64592;52.168;21.040;2024-03-23T15:52:58;14.27;;;9.38;;
75912;SDS011;64592;52.168;21.040;2024-03-23T15:58:00;22.35;;;12.95;;
75912;SDS011;64592;52.168;21.040;2024-03-23T16:03:03;20.13;;;12.32;;
75912;SDS011;64592;52.168;21.040;2024-03-23T16:08:05;20.83;;;12.02;;
75912;SDS011;64592;52.168;21.040;2024-03-23T16:13:08;19.15;;;11.57;;
75912;SDS011;64592;52.168;21.040;2024-03-23T16:18:12;14.13;;;9.88;;
75912;SDS011;64592;52.168;21.040;2024-03-23T16:23:13;13.77;;;9.20;;
75912;SDS011;64592;52.168;21.040;2024-03-23T16:28:15;14.43;;;9.70;;
75912;SDS011;64592;52.168;21.040;2024-03-23T16:33:18;15.48;;;9.13;;
75912;SDS011;64592;52.168;21.040;2024-03-23T16:38:19;12.65;;;7.63;;
75912;SDS011;64592;52.168;21.040;2024-03-23T16:43:21;10.77;;;7.03;;
75912;SDS011;64592;52.168;21.040;2024-03-23T16:48:25;10.45;;;7.55;;
75912;SDS011;64592;52.168;21.040;2024-03-23T16:53:27;12.10;;;7.65;;
75912;SDS011;64592;52.168;21.040;2024-03-23T16:58:31;10.38;;;6.68;;
75912;SDS011;64592;52.168;21.040;2024-03-23T17:03:34;7.53;;;5.50;;
75912;SDS011;64592;52.168;21.040;2024-03-23T17:08:36;9.63;;;6.25;;
75912;SDS011;64592;52.168;21.040;2024-03-23T17:13:38;11.38;;;6.30;;
75912;SDS011;64592;52.168;21.040;2024-03-23T17:18:41;11.77;;;6.00;;
75912;SDS011;64592;52.168;21.040;2024-03-23T17:23:42;12.70;;;5.93;;
75912;SDS011;64592;52.168;21.040;2024-03-23T17:28:44;9.52;;;5.78;;
75912;SDS011;64592;52.168;21.040;2024-03-23T17:33:50;10.20;;;6.25;;
75912;SDS011;64592;52.168;21.040;2024-03-23T17:38:53;9.90;;;5.65;;
75912;SDS011;64592;52.168;21.040;2024-03-23T17:43:55;10.43;;;6.28;;
75912;SDS011;64592;52.168;21.040;2024-03-23T17:48:58;11.52;;;5.93;;
75912;SDS011;64592;52.168;21.040;2024-03-23T17:54:00;11.00;;;4.70;;
75912;SDS011;64592;52.168;21.040;2024-03-23T17:59:01;7.70;;;4.70;;
75912;SDS011;64592;52.168;21.040;2024-03-23T18:04:04;10.50;;;6.72;;
75912;SDS011;64592;52.168;21.040;2024-03-23T18:09:06;8.68;;;6.20;;
75912;SDS011;64592;52.168;21.040;2024-03-23T18:14:09;11.35;;;6.63;;
75912;SDS011;64592;52.168;21.040;2024-03-23T18:19:12;10.63;;;6.40;;
75912;SDS011;64592;52.168;21.040;2024-03-23T18:24:14;9.93;;;6.25;;
75912;SDS011;64592;52.168;21.040;2024-03-23T18:29:16;9.60;;;6.03;;
75912;SDS011;64592;52.168;21.040;2024-03-23T18:34:19;9.38;;;5.50;;
75912;SDS011;64592;52.168;21.040;2024-03-23T18:39:21;12.52;;;6.40;;
75912;SDS011;64592;52.168;21.040;2024-03-23T18:44:23;10.82;;;7.03;;
75912;SDS011;64592;52.168;21.040;2024-03-23T18:49:26;7.38;;;4.78;;
75912;SDS011;64592;52.168;21.040;2024-03-23T18:54:27;8.57;;;4.55;;
75912;SDS011;64592;52.168;21.040;2024-03-23T18:59:29;5.82;;;3.70;;
75912;SDS011;64592;52.168;21.040;2024-03-23T19:04:32;6.45;;;3.78;;
75912;SDS011;64592;52.168;21.040;2024-03-23T19:09:33;5.28;;;3.53;;
75912;SDS011;64592;52.168;21.040;2024-03-23T19:14:35;5.07;;;2.88;;
75912;SDS011;64592;52.168;21.040;2024-03-23T19:19:41;2.95;;;2.22;;
75912;SDS011;64592;52.168;21.040;2024-03-23T19:24:42;3.35;;;2.05;;
75912;SDS011;64592;52.168;21.040;2024-03-23T19:29:44;2.67;;;1.75;;
75912;SDS011;64592;52.168;21.040;2024-03-23T19:34:47;3.13;;;1.85;;
75912;SDS011;64592;52.168;21.040;2024-03-23T19:39:49;2.95;;;1.88;;
75912;SDS011;64592;52.168;21.040;2024-03-23T19:44:50;3.22;;;1.98;;
75912;SDS011;64592;52.168;21.040;2024-03-23T19:49:54;2.20;;;1.60;;
75912;SDS011;64592;52.168;21.040;2024-03-23T19:54:55;2.50;;;1.60;;
75912;SDS011;64592;52.168;21.040;2024-03-23T19:59:57;3.15;;;1.80;;
75912;SDS011;64592;52.168;21.040;2024-03-23T20:05:00;3.63;;;1.80;;
75912;SDS011;64592;52.168;21.040;2024-03-23T20:10:02;2.60;;;1.75;;
75912;SDS011;64592;52.168;21.040;2024-03-23T20:15:05;3.63;;;2.20;;
75912;SDS011;64592;52.168;21.040;2024-03-23T20:20:09;2.67;;;2.13;;
75912;SDS011;64592;52.168;21.040;2024-03-23T20:25:12;4.63;;;2.53;;
75912;SDS011;64592;52.168;21.040;2024-03-23T20:30:13;3.88;;;2.63;;
75912;SDS011;64592;52.168;21.040;2024-03-23T20:35:16;3.53;;;2.15;;
75912;SDS011;64592;52.168;21.040;2024-03-23T20:40:18;4.30;;;2.55;;
75912;SDS011;64592;52.168;21.040;2024-03-23T20:45:19;5.32;;;2.67;;
75912;SDS011;64592;52.168;21.040;2024-03-23T20:50:22;3.58;;;2.45;;
75912;SDS011;64592;52.168;21.040;2024-03-23T20:55:24;3.00;;;2.20;;
75912;SDS011;64592;52.168;21.040;2024-03-23T21:00:26;5.13;;;2.42;;
75912;SDS011;64592;52.168;21.040;2024-03-23T21:05:29;3.58;;;2.42;;
75912;SDS011;64592;52.168;21.040;2024-03-23T21:10:31;4.00;;;2.80;;
75912;SDS011;64592;52.168;21.040;2024-03-23T21:15:32;3.88;;;2.85;;
75912;SDS011;64592;52.168;21.040;2024-03-23T21:20:37;4.88;;;2.97;;
75912;SDS011;64592;52.168;21.040;2024-03-23T21:25:39;4.75;;;2.53;;
75912;SDS011;64592;52.168;21.040;2024-03-23T21:30:42;4.85;;;3.42;;
75912;SDS011;64592;52.168;21.040;2024-03-23T21:35:45;5.88;;;2.65;;
75912;SDS011;64592;52.168;21.040;2024-03-23T21:40:55;3.30;;;2.92;;
75912;SDS011;64592;52.168;21.040;2024-03-23T21:46:00;4.85;;;2.88;;
75912;SDS011;64592;52.168;21.040;2024-03-23T21:51:04;4.30;;;2.90;;
75912;SDS011;64592;52.168;21.040;2024-03-23T21:56:06;4.43;;;2.95;;
75912;SDS011;64592;52.168;21.040;2024-03-23T22:01:08;5.63;;;2.70;;
75912;SDS011;64592;52.168;21.040;2024-03-23T22:06:11;6.43;;;3.17;;
75912;SDS011;64592;52.168;21.040;2024-03-23T22:11:13;6.07;;;3.67;;
75912;SDS011;64592;52.168;21.040;2024-03-23T22:16:15;6.85;;;3.25;;
75912;SDS011;64592;52.168;21.040;2024-03-23T22:21:18;7.60;;;3.35;;
75912;SDS011;64592;52.168;21.040;2024-03-23T22:26:20;5.50;;;3.50;;
75912;SDS011;64592;52.168;21.040;2024-03-23T22:31:21;5.55;;;3.63;;
75912;SDS011;64592;52.168;21.040;2024-03-23T22:36:24;8.40;;;3.65;;
75912;SDS011;64592;52.168;21.040;2024-03-23T22:41:26;9.25;;;3.58;;
75912;SDS011;64592;52.168;21.040;2024-03-23T22:46:28;6.90;;;3.45;;
75912;SDS011;64592;52.168;21.040;2024-03-23T22:51:31;7.72;;;3.20;;
75912;SDS011;64592;52.168;21.040;2024-03-23T22:56:32;5.20;;;3.53;;
75912;SDS011;64592;52.168;21.040;2024-03-23T23:01:34;5.10;;;2.97;;
75912;SDS011;64592;52.168;21.040;2024-03-23T23:06:37;6.57;;;4.05;;
75912;SDS011;64592;52.168;21.040;2024-03-23T23:11:39;6.10;;;3.10;;
75912;SDS011;64592;52.168;21.040;2024-03-23T23:16:40;6.13;;;3.50;;
75912;SDS011;64592;52.168;21.040;2024-03-23T23:21:44;6.70;;;4.22;;
75912;SDS011;64592;52.168;21.040;2024-03-23T23:26:48;10.57;;;5.25;;
75912;SDS011;64592;52.168;21.040;2024-03-23T23:31:50;8.95;;;5.50;;
75912;SDS011;64592;52.168;21.040;2024-03-23T23:36:53;9.82;;;5.05;;
75912;SDS011;64592;52.168;21.040;2024-03-23T23:41:55;10.25;;;5.63;;
75912;SDS011;64592;52.168;21.040;2024-03-23T23:46:56;10.23;;;5.55;;
75912;SDS011;64592;52.168;21.040;2024-03-23T23:51:59;7.72;;;5.68;;
75912;SDS011;64592;52.168;21.040;2024-03-23T23:57:01;9.88;;;5.80;;
